PH-0107 weather

Woodland Airpark
Magalang, Pampanga Province, Philippines

Public forecast

Using degrees Celsius for public forecast. Weather courtesy of forecast.io.

Closest aviation weather report (METAR) to Woodland Airpark

Closest report is Diosdado Macapagal International Airport, 8.0 nm (14.7 km) WSW. Retrieved 2019/11/19 01:00 UTC (26 minutes ago):

RPLC 190100Z 36004KT 5000 HZ FEW020 BKN100 28/23 Q1010 NOSIG RMK A2983

Closest aviation forecast (TAF) to Woodland Airpark

Closest forecast is Diosdado Macapagal International Airport, 8.0 nm (14.7 km) WSW. Retrieved 2019-11-19 00:03 UTC (1 hour ago):

TAF RPLC 182300Z 1900/2006 32006KT 8000 SCT020 BKN300 TX33/1906Z TN25/1922Z TEMPO 1900/1906 27006KT 7000 -SHRA SCT020 BKN100